createdAt,value
2022-12-24T00:06:37.206Z,0
2022-12-24T00:16:14.985Z,0
2022-12-24T00:25:52.402Z,0
2022-12-24T00:35:29.993Z,0
2022-12-24T00:45:06.874Z,0
2022-12-24T00:54:43.952Z,0.83
2022-12-24T01:04:20.679Z,0
2022-12-24T01:13:58.082Z,0
2022-12-24T01:23:35.203Z,0
2022-12-24T01:33:13.080Z,0
2022-12-24T01:42:50.393Z,0
2022-12-24T01:52:27.884Z,0
2022-12-24T02:02:05.200Z,0
2022-12-24T02:11:42.534Z,0
2022-12-24T02:21:19.568Z,0
2022-12-24T02:30:57.064Z,0
2022-12-24T02:40:33.973Z,0
2022-12-24T02:50:11.926Z,0
2022-12-24T02:59:49.412Z,0
2022-12-24T03:09:26.555Z,0
2022-12-24T03:19:03.442Z,0
2022-12-24T03:28:40.995Z,0
2022-12-24T03:38:17.643Z,0
2022-12-24T03:47:54.900Z,0
2022-12-24T03:57:31.998Z,0
2022-12-24T04:07:09.631Z,0
2022-12-24T04:16:47.484Z,0
2022-12-24T04:26:24.882Z,0
2022-12-24T04:36:01.978Z,0
2022-12-24T04:45:40.286Z,0
2022-12-24T04:55:17.065Z,0
2022-12-24T05:04:54.676Z,0
2022-12-24T05:14:32.205Z,0
2022-12-24T05:24:09.389Z,0
2022-12-24T05:33:47.062Z,0
2022-12-24T05:43:24.460Z,0
2022-12-24T05:53:01.622Z,0
2022-12-24T06:02:37.976Z,0
2022-12-24T06:12:14.637Z,0
2022-12-24T06:21:50.959Z,0
2022-12-24T06:31:27.405Z,0
2022-12-24T06:41:03.926Z,0.83
2022-12-24T06:50:41.377Z,3.33
2022-12-24T07:00:19.171Z,15
2022-12-24T07:09:56.749Z,40.83
2022-12-24T07:19:34.510Z,83.33
2022-12-24T07:29:11.980Z,131.67
2022-12-24T07:38:49.424Z,177.5
2022-12-24T07:48:26.770Z,217.5
2022-12-24T07:58:03.809Z,425.83
2022-12-24T08:07:41.324Z,366.67
2022-12-24T08:17:18.724Z,365
2022-12-24T08:26:56.478Z,700
2022-12-24T08:36:34.963Z,533.33
2022-12-24T08:46:13.260Z,905
2022-12-24T08:55:55.868Z,1232.5
2022-12-24T09:05:27.100Z,1444.17
2022-12-24T09:15:04.804Z,1720.83
2022-12-24T09:24:42.882Z,974.17
2022-12-24T09:34:22.729Z,587.5
2022-12-24T09:43:57.354Z,765.83
2022-12-24T09:53:35.058Z,1690.83
2022-12-24T10:03:13.643Z,2298.33
2022-12-24T10:12:51.484Z,3215
2022-12-24T10:22:28.291Z,1764.17
2022-12-24T10:32:05.911Z,2156.67
2022-12-24T10:41:43.105Z,1996.67
2022-12-24T10:51:20.663Z,1930
2022-12-24T11:00:58.558Z,2110
2022-12-24T11:10:36.694Z,3849.17
2022-12-24T11:20:15.999Z,4238.33
2022-12-24T11:29:52.755Z,2040
2022-12-24T11:39:29.974Z,2647.5
2022-12-24T11:49:08.146Z,1972.5
2022-12-24T11:58:42.819Z,1890.83
2022-12-24T12:08:21.116Z,2269.17
2022-12-24T12:17:59.076Z,3530.83
2022-12-24T12:27:36.722Z,3255
2022-12-24T12:37:14.998Z,3609.17
2022-12-24T12:46:49.917Z,1765.83
2022-12-24T12:56:26.884Z,1220.83
2022-12-24T13:06:04.005Z,1137.5
2022-12-24T13:15:41.468Z,1634.17
2022-12-24T13:25:20.341Z,2339.17
2022-12-24T13:34:58.357Z,1900.83
2022-12-24T13:44:30.589Z,1360.83
2022-12-24T13:54:11.534Z,6325
2022-12-24T14:03:46.302Z,1850.83
2022-12-24T14:13:21.597Z,615
2022-12-24T14:22:57.248Z,217.5
2022-12-24T14:32:33.662Z,133.33
2022-12-24T14:42:10.842Z,189.17
2022-12-24T14:51:47.139Z,301.67
2022-12-24T15:01:22.638Z,133.33
2022-12-24T15:10:59.181Z,66.67
2022-12-24T15:20:35.808Z,42.5
2022-12-24T15:30:12.517Z,8.33
2022-12-24T15:39:48.952Z,2.5
2022-12-24T15:49:25.711Z,0.83
2022-12-24T15:59:02.338Z,0
2022-12-24T16:08:38.985Z,0
2022-12-24T16:18:15.702Z,0
2022-12-24T16:27:52.942Z,0
2022-12-24T16:37:30.252Z,0
2022-12-24T16:47:06.901Z,0
2022-12-24T16:56:43.504Z,0
2022-12-24T17:06:19.688Z,0
2022-12-24T17:15:56.710Z,0
2022-12-24T17:25:33.177Z,0
2022-12-24T17:35:09.898Z,0
2022-12-24T17:44:46.199Z,0
2022-12-24T17:54:22.701Z,0
2022-12-24T18:03:58.996Z,0
2022-12-24T18:13:35.475Z,0
2022-12-24T18:23:12.168Z,0
2022-12-24T18:32:48.897Z,0.83
2022-12-24T18:42:25.737Z,0
2022-12-24T18:52:02.722Z,0
2022-12-24T19:01:39.206Z,0
2022-12-24T19:11:15.998Z,0
2022-12-24T19:20:52.773Z,0
2022-12-24T19:30:29.611Z,0
2022-12-24T19:40:06.217Z,0
2022-12-24T19:49:43.203Z,0
2022-12-24T19:59:19.726Z,0
2022-12-24T20:08:56.611Z,0
2022-12-24T20:18:33.980Z,0
2022-12-24T20:28:09.860Z,0
2022-12-24T20:37:46.585Z,0
2022-12-24T20:47:23.108Z,0
2022-12-24T20:57:00.420Z,0
2022-12-24T21:06:38.068Z,0
2022-12-24T21:16:15.107Z,0
2022-12-24T21:25:51.944Z,0
2022-12-24T21:35:29.014Z,0
2022-12-24T21:45:07.871Z,0
2022-12-24T21:54:43.429Z,0
2022-12-24T22:04:20.985Z,0
2022-12-24T22:13:57.581Z,0
2022-12-24T22:23:38.652Z,0
2022-12-24T22:33:11.925Z,0
2022-12-24T22:42:48.614Z,0
2022-12-24T22:52:25.571Z,0
2022-12-24T23:02:02.697Z,0
2022-12-24T23:11:38.965Z,0
2022-12-24T23:21:15.415Z,0
2022-12-24T23:30:51.560Z,0
2022-12-24T23:40:28.599Z,0
2022-12-24T23:50:05.725Z,0
2022-12-24T23:59:42.585Z,0
